sensor_id;sensor_type;location;lat;lon;timestamp;pressure;altitude;pressure_sealevel;temperature;humidity
42385;BME280;28042;43.986;22.860;2023-09-19T00:02:01;101508.00;;;15.10;100.00
42385;BME280;28042;43.986;22.860;2023-09-19T00:04:30;101505.47;;;15.08;100.00
42385;BME280;28042;43.986;22.860;2023-09-19T00:06:57;101498.69;;;15.04;100.00
42385;BME280;28042;43.986;22.860;2023-09-19T00:09:23;101491.06;;;14.99;100.00
42385;BME280;28042;43.986;22.860;2023-09-19T00:11:51;101487.69;;;14.97;100.00
42385;BME280;28042;43.986;22.860;2023-09-19T00:14:16;101467.81;;;15.02;100.00
42385;BME280;28042;43.986;22.860;2023-09-19T00:16:42;101462.97;;;15.11;100.00
42385;BME280;28042;43.986;22.860;2023-09-19T00:19:07;101459.84;;;15.20;100.00
42385;BME280;28042;43.986;22.860;2023-09-19T00:21:34;101469.56;;;15.30;100.00
42385;BME280;28042;43.986;22.860;2023-09-19T00:23:59;101478.88;;;15.35;100.00
42385;BME280;28042;43.986;22.860;2023-09-19T00:26:25;101479.91;;;15.34;100.00
42385;BME280;28042;43.986;22.860;2023-09-19T00:28:52;101485.22;;;15.36;100.00
42385;BME280;28042;43.986;22.860;2023-09-19T00:31:17;101493.25;;;15.37;100.00
42385;BME280;28042;43.986;22.860;2023-09-19T00:33:43;101486.06;;;15.36;100.00
42385;BME280;28042;43.986;22.860;2023-09-19T00:36:08;101477.19;;;15.41;100.00
42385;BME280;28042;43.986;22.860;2023-09-19T00:38:33;101486.69;;;15.45;100.00
42385;BME280;28042;43.986;22.860;2023-09-19T00:40:59;101480.13;;;15.52;100.00
42385;BME280;28042;43.986;22.860;2023-09-19T00:43:25;101473.41;;;15.55;100.00
42385;BME280;28042;43.986;22.860;2023-09-19T00:45:51;101470.00;;;15.60;100.00
42385;BME280;28042;43.986;22.860;2023-09-19T00:48:18;101463.22;;;15.49;100.00
42385;BME280;28042;43.986;22.860;2023-09-19T00:50:45;101470.00;;;15.46;100.00
42385;BME280;28042;43.986;22.860;2023-09-19T00:53:13;101478.25;;;15.60;100.00
42385;BME280;28042;43.986;22.860;2023-09-19T00:55:39;101476.38;;;15.67;100.00
42385;BME280;28042;43.986;22.860;2023-09-19T00:58:06;101478.69;;;15.63;100.00
42385;BME280;28042;43.986;22.860;2023-09-19T01:00:33;101470.03;;;15.73;100.00
42385;BME280;28042;43.986;22.860;2023-09-19T01:02:59;101465.34;;;15.80;100.00
42385;BME280;28042;43.986;22.860;2023-09-19T01:05:26;101471.06;;;15.85;100.00
42385;BME280;28042;43.986;22.860;2023-09-19T01:07:51;101474.25;;;15.82;100.00
42385;BME280;28042;43.986;22.860;2023-09-19T01:10:18;101470.84;;;15.80;100.00
42385;BME280;28042;43.986;22.860;2023-09-19T01:18:02;101479.53;;;15.77;100.00
42385;BME280;28042;43.986;22.860;2023-09-19T01:26:07;101482.72;;;15.74;100.00
42385;BME280;28042;43.986;22.860;2023-09-19T01:31:09;101477.63;;;15.71;100.00
42385;BME280;28042;43.986;22.860;2023-09-19T01:36:18;101481.03;;;15.73;100.00
42385;BME280;28042;43.986;22.860;2023-09-19T01:38:43;101488.22;;;15.74;100.00
42385;BME280;28042;43.986;22.860;2023-09-19T01:41:11;101487.78;;;15.70;100.00
42385;BME280;28042;43.986;22.860;2023-09-19T01:43:46;101491.16;;;15.72;100.00
42385;BME280;28042;43.986;22.860;2023-09-19T01:46:21;101486.53;;;15.73;100.00
42385;BME280;28042;43.986;22.860;2023-09-19T01:48:51;101488.41;;;15.72;100.00
42385;BME280;28042;43.986;22.860;2023-09-19T01:51:32;101486.53;;;15.73;100.00
42385;BME280;28042;43.986;22.860;2023-09-19T01:54:02;101493.28;;;15.77;100.00
42385;BME280;28042;43.986;22.860;2023-09-19T01:56:34;101490.53;;;15.77;100.00
42385;BME280;28042;43.986;22.860;2023-09-19T01:59:04;101478.91;;;15.75;100.00
42385;BME280;28042;43.986;22.860;2023-09-19T02:01:29;101482.91;;;15.72;100.00
42385;BME280;28042;43.986;22.860;2023-09-19T02:03:56;101478.91;;;15.62;100.00
42385;BME280;28042;43.986;22.860;2023-09-19T02:06:21;101479.31;;;15.59;100.00
42385;BME280;28042;43.986;22.860;2023-09-19T02:08:47;101482.31;;;15.64;100.00
42385;BME280;28042;43.986;22.860;2023-09-19T02:11:12;101471.72;;;15.67;100.00
42385;BME280;28042;43.986;22.860;2023-09-19T02:13:38;101473.41;;;15.62;100.00
42385;BME280;28042;43.986;22.860;2023-09-19T02:16:03;101480.78;;;15.54;100.00
42385;BME280;28042;43.986;22.860;2023-09-19T02:18:29;101491.13;;;15.46;100.00
42385;BME280;28042;43.986;22.860;2023-09-19T02:20:55;101489.47;;;15.38;100.00
42385;BME280;28042;43.986;22.860;2023-09-19T02:23:21;101495.81;;;15.39;100.00
42385;BME280;28042;43.986;22.860;2023-09-19T02:25:56;101489.84;;;15.35;100.00
42385;BME280;28042;43.986;22.860;2023-09-19T02:28:28;101483.09;;;15.31;100.00
42385;BME280;28042;43.986;22.860;2023-09-19T02:30:57;101487.09;;;15.35;100.00
42385;BME280;28042;43.986;22.860;2023-09-19T02:33:22;101486.06;;;15.36;100.00
42385;BME280;28042;43.986;22.860;2023-09-19T02:35:48;101478.84;;;15.28;100.00
42385;BME280;28042;43.986;22.860;2023-09-19T02:38:13;101487.09;;;15.22;100.00
42385;BME280;28042;43.986;22.860;2023-09-19T02:40:39;101483.94;;;15.25;100.00
42385;BME280;28042;43.986;22.860;2023-09-19T02:43:05;101482.00;;;15.19;100.00
42385;BME280;28042;43.986;22.860;2023-09-19T02:45:30;101479.06;;;15.14;100.00
42385;BME280;28042;43.986;22.860;2023-09-19T02:47:57;101482.25;;;15.24;100.00
42385;BME280;28042;43.986;22.860;2023-09-19T02:50:23;101469.56;;;15.23;100.00
42385;BME280;28042;43.986;22.860;2023-09-19T02:52:48;101481.59;;;15.35;100.00
42385;BME280;28042;43.986;22.860;2023-09-19T02:55:14;101473.78;;;15.45;100.00
42385;BME280;28042;43.986;22.860;2023-09-19T02:57:46;101476.13;;;15.48;100.00
42385;BME280;28042;43.986;22.860;2023-09-19T03:00:11;101469.16;;;15.59;100.00
42385;BME280;28042;43.986;22.860;2023-09-19T03:02:37;101466.44;;;15.66;100.00
42385;BME280;28042;43.986;22.860;2023-09-19T03:05:05;101465.16;;;15.68;100.00
42385;BME280;28042;43.986;22.860;2023-09-19T03:07:30;101456.91;;;15.75;100.00
42385;BME280;28042;43.986;22.860;2023-09-19T03:09:56;101454.34;;;15.80;100.00
42385;BME280;28042;43.986;22.860;2023-09-19T03:12:21;101454.56;;;15.85;100.00
42385;BME280;28042;43.986;22.860;2023-09-19T03:14:47;101450.13;;;15.84;100.00
42385;BME280;28042;43.986;22.860;2023-09-19T03:17:13;101457.09;;;15.93;100.00
42385;BME280;28042;43.986;22.860;2023-09-19T03:19:39;101461.97;;;15.91;100.00
42385;BME280;28042;43.986;22.860;2023-09-19T03:22:05;101457.53;;;15.90;100.00
42385;BME280;28042;43.986;22.860;2023-09-19T03:24:30;101468.75;;;15.82;100.00
42385;BME280;28042;43.986;22.860;2023-09-19T03:26:57;101464.94;;;15.76;100.00
42385;BME280;28042;43.986;22.860;2023-09-19T03:29:22;101467.69;;;15.70;100.00
42385;BME280;28042;43.986;22.860;2023-09-19T03:31:47;101461.13;;;15.71;100.00
42385;BME280;28042;43.986;22.860;2023-09-19T03:34:13;101458.16;;;15.79;100.00
42385;BME280;28042;43.986;22.860;2023-09-19T03:36:38;101458.16;;;15.79;100.00
42385;BME280;28042;43.986;22.860;2023-09-19T03:39:04;101456.47;;;15.85;100.00
42385;BME280;28042;43.986;22.860;2023-09-19T03:41:30;101455.19;;;15.80;100.00
42385;BME280;28042;43.986;22.860;2023-09-19T03:43:56;101450.13;;;15.84;100.00
42385;BME280;28042;43.986;22.860;2023-09-19T03:46:21;101447.19;;;15.66;100.00
42385;BME280;28042;43.986;22.860;2023-09-19T03:48:47;101461.13;;;15.71;100.00
42385;BME280;28042;43.986;22.860;2023-09-19T03:51:12;101449.06;;;15.72;100.00
42385;BME280;28042;43.986;22.860;2023-09-19T03:53:37;101449.72;;;15.74;100.00
42385;BME280;28042;43.986;22.860;2023-09-19T03:56:03;101453.09;;;15.69;100.00
42385;BME280;28042;43.986;22.860;2023-09-19T03:58:28;101443.56;;;15.59;100.00
42385;BME280;28042;43.986;22.860;2023-09-19T04:00:56;101447.59;;;15.63;100.00
42385;BME280;28042;43.986;22.860;2023-09-19T04:03:23;101449.50;;;15.69;100.00
42385;BME280;28042;43.986;22.860;2023-09-19T04:05:48;101450.97;;;15.78;100.00
42385;BME280;28042;43.986;22.860;2023-09-19T04:08:14;101446.31;;;15.78;100.00
42385;BME280;28042;43.986;22.860;2023-09-19T04:10:41;101440.81;;;15.72;100.00
42385;BME280;28042;43.986;22.860;2023-09-19T04:13:07;101445.50;;;15.65;100.00
42385;BME280;28042;43.986;22.860;2023-09-19T04:15:32;101439.34;;;15.63;100.00
42385;BME280;28042;43.986;22.860;2023-09-19T04:17:58;101433.00;;;15.75;100.00
42385;BME280;28042;43.986;22.860;2023-09-19T04:20:23;101432.75;;;15.90;100.00
42385;BME280;28042;43.986;22.860;2023-09-19T04:22:48;101437.78;;;16.06;100.00
42385;BME280;28042;43.986;22.860;2023-09-19T04:25:14;101428.03;;;16.10;100.00
42385;BME280;28042;43.986;22.860;2023-09-19T04:27:39;101439.88;;;16.18;100.00
42385;BME280;28042;43.986;22.860;2023-09-19T04:30:06;101435.59;;;16.22;100.00
42385;BME280;28042;43.986;22.860;2023-09-19T04:32:36;101431.38;;;16.26;100.00
42385;BME280;28042;43.986;22.860;2023-09-19T04:35:05;101436.66;;;16.34;100.00
42385;BME280;28042;43.986;22.860;2023-09-19T04:37:30;101426.88;;;16.38;100.00
42385;BME280;28042;43.986;22.860;2023-09-19T04:39:56;101421.97;;;16.40;100.00
42385;BME280;28042;43.986;22.860;2023-09-19T04:42:21;101422.56;;;16.55;100.00
42385;BME280;28042;43.986;22.860;2023-09-19T04:44:50;101430.56;;;16.63;100.00
42385;BME280;28042;43.986;22.860;2023-09-19T04:47:18;101418.63;;;16.76;100.00
42385;BME280;28042;43.986;22.860;2023-09-19T04:49:44;101412.88;;;16.84;100.00
42385;BME280;28042;43.986;22.860;2023-09-19T04:52:09;101416.66;;;16.90;100.00
42385;BME280;28042;43.986;22.860;2023-09-19T04:54:34;101434.81;;;17.04;100.00
42385;BME280;28042;43.986;22.860;2023-09-19T04:57:00;101443.69;;;17.06;100.00
42385;BME280;28042;43.986;22.860;2023-09-19T04:59:28;101452.84;;;17.00;100.00
42385;BME280;28042;43.986;22.860;2023-09-19T05:01:53;101460.69;;;17.03;100.00
42385;BME280;28042;43.986;22.860;2023-09-19T05:04:19;101459.25;;;16.94;100.00
42385;BME280;28042;43.986;22.860;2023-09-19T05:06:44;101444.16;;;17.03;100.00
42385;BME280;28042;43.986;22.860;2023-09-19T05:09:10;101431.31;;;17.15;100.00
42385;BME280;28042;43.986;22.860;2023-09-19T05:11:35;101425.41;;;17.37;100.00
42385;BME280;28042;43.986;22.860;2023-09-19T05:14:03;101422.56;;;17.50;100.00
42385;BME280;28042;43.986;22.860;2023-09-19T05:16:29;101430.56;;;17.58;100.00
42385;BME280;28042;43.986;22.860;2023-09-19T05:18:56;101424.34;;;17.63;100.00
42385;BME280;28042;43.986;22.860;2023-09-19T05:21:23;101419.06;;;17.61;100.00
42385;BME280;28042;43.986;22.860;2023-09-19T05:23:51;101407.47;;;17.77;100.00
42385;BME280;28042;43.986;22.860;2023-09-19T05:26:17;101403.09;;;17.88;100.00
42385;BME280;28042;43.986;22.860;2023-09-19T05:28:43;101404.78;;;17.89;100.00
42385;BME280;28042;43.986;22.860;2023-09-19T05:31:08;101394.91;;;18.00;100.00
42385;BME280;28042;43.986;22.860;2023-09-19T05:33:34;101396.53;;;18.07;100.00
42385;BME280;28042;43.986;22.860;2023-09-19T05:35:59;101399.97;;;17.85;100.00
42385;BME280;28042;43.986;22.860;2023-09-19T05:38:24;101400.72;;;17.73;100.00
42385;BME280;28042;43.986;22.860;2023-09-19T05:40:51;101402.88;;;17.90;100.00
42385;BME280;28042;43.986;22.860;2023-09-19T05:43:16;101403.34;;;18.05;100.00
42385;BME280;28042;43.986;22.860;2023-09-19T05:45:41;101414.53;;;17.92;100.00
42385;BME280;28042;43.986;22.860;2023-09-19T05:48:13;101415.75;;;17.96;100.00
42385;BME280;28042;43.986;22.860;2023-09-19T05:50:40;101433.25;;;17.90;100.00
42385;BME280;28042;43.986;22.860;2023-09-19T05:53:06;101435.84;;;17.85;100.00
42385;BME280;28042;43.986;22.860;2023-09-19T05:55:34;101433.75;;;17.80;100.00
42385;BME280;28042;43.986;22.860;2023-09-19T05:58:00;101411.75;;;17.73;100.00
42385;BME280;28042;43.986;22.860;2023-09-19T06:00:26;101410.41;;;17.83;100.00
42385;BME280;28042;43.986;22.860;2023-09-19T06:02:54;101407.34;;;17.91;100.00
42385;BME280;28042;43.986;22.860;2023-09-19T06:05:21;101410.22;;;17.96;100.00
42385;BME280;28042;43.986;22.860;2023-09-19T06:07:46;101419.13;;;17.98;100.00
42385;BME280;28042;43.986;22.860;2023-09-19T06:10:12;101423.44;;;17.94;100.00
42385;BME280;28042;43.986;22.860;2023-09-19T06:12:41;101432.00;;;17.86;100.00
42385;BME280;28042;43.986;22.860;2023-09-19T06:15:09;101437.44;;;17.74;100.00
42385;BME280;28042;43.986;22.860;2023-09-19T06:17:37;101435.00;;;17.84;100.00
42385;BME280;28042;43.986;22.860;2023-09-19T06:20:05;101426.78;;;17.96;100.00
42385;BME280;28042;43.986;22.860;2023-09-19T06:22:37;101430.78;;;17.82;100.00
42385;BME280;28042;43.986;22.860;2023-09-19T06:25:03;101422.22;;;17.90;100.00
42385;BME280;28042;43.986;22.860;2023-09-19T06:27:28;101416.28;;;17.86;100.00
42385;BME280;28042;43.986;22.860;2023-09-19T06:29:54;101419.47;;;17.90;100.00
42385;BME280;28042;43.986;22.860;2023-09-19T06:32:26;101419.75;;;18.18;100.00
42385;BME280;28042;43.986;22.860;2023-09-19T06:34:52;101413.63;;;18.16;100.00
42385;BME280;28042;43.986;22.860;2023-09-19T06:37:19;101417.78;;;18.25;100.00
42385;BME280;28042;43.986;22.860;2023-09-19T06:39:46;101418.50;;;18.51;100.00
42385;BME280;28042;43.986;22.860;2023-09-19T06:42:11;101421.97;;;18.46;100.00
42385;BME280;28042;43.986;22.860;2023-09-19T06:44:37;101399.63;;;18.48;99.45
42385;BME280;28042;43.986;22.860;2023-09-19T06:47:02;101407.66;;;18.49;98.49
42385;BME280;28042;43.986;22.860;2023-09-19T06:49:27;101407.91;;;18.48;98.22
42385;BME280;28042;43.986;22.860;2023-09-19T06:51:54;101412.03;;;18.57;97.09
42385;BME280;28042;43.986;22.860;2023-09-19T06:54:20;101417.72;;;18.62;96.14
42385;BME280;28042;43.986;22.860;2023-09-19T06:56:46;101403.84;;;18.69;95.55
42385;BME280;28042;43.986;22.860;2023-09-19T06:59:11;101411.78;;;18.58;96.21
42385;BME280;28042;43.986;22.860;2023-09-19T07:01:39;101411.66;;;18.53;97.23
42385;BME280;28042;43.986;22.860;2023-09-19T07:04:05;101418.25;;;18.71;97.49
42385;BME280;28042;43.986;22.860;2023-09-19T07:06:31;101421.81;;;18.89;95.74
42385;BME280;28042;43.986;22.860;2023-09-19T07:08:56;101423.97;;;18.87;95.04
42385;BME280;28042;43.986;22.860;2023-09-19T07:11:22;101423.75;;;19.01;94.26
42385;BME280;28042;43.986;22.860;2023-09-19T07:13:48;101421.63;;;19.03;92.96
42385;BME280;28042;43.986;22.860;2023-09-19T07:16:13;101419.47;;;19.05;93.69
42385;BME280;28042;43.986;22.860;2023-09-19T07:18:52;101421.41;;;19.16;90.50
42385;BME280;28042;43.986;22.860;2023-09-19T07:21:17;101416.63;;;19.23;91.13
42385;BME280;28042;43.986;22.860;2023-09-19T07:23:43;101413.84;;;19.11;89.11
42385;BME280;28042;43.986;22.860;2023-09-19T07:26:08;101417.91;;;19.09;90.28
42385;BME280;28042;43.986;22.860;2023-09-19T07:28:33;101416.38;;;19.36;88.79
42385;BME280;28042;43.986;22.860;2023-09-19T07:31:01;101409.84;;;19.19;88.72
42385;BME280;28042;43.986;22.860;2023-09-19T07:33:28;101413.50;;;19.31;88.43
42385;BME280;28042;43.986;22.860;2023-09-19T07:35:53;101413.53;;;19.55;89.33
42385;BME280;28042;43.986;22.860;2023-09-19T07:38:18;101411.88;;;19.77;87.01
42385;BME280;28042;43.986;22.860;2023-09-19T07:40:44;101407.88;;;19.61;88.15
42385;BME280;28042;43.986;22.860;2023-09-19T07:43:09;101413.25;;;19.44;87.24
42385;BME280;28042;43.986;22.860;2023-09-19T07:45:34;101413.31;;;19.68;87.65
42385;BME280;28042;43.986;22.860;2023-09-19T07:48:01;101399.84;;;19.83;86.98
42385;BME280;28042;43.986;22.860;2023-09-19T07:50:33;101398.84;;;19.89;85.11
42385;BME280;28042;43.986;22.860;2023-09-19T07:52:58;101397.66;;;19.85;84.03
42385;BME280;28042;43.986;22.860;2023-09-19T07:55:24;101402.72;;;19.76;84.10
42385;BME280;28042;43.986;22.860;2023-09-19T07:57:50;101399.00;;;19.83;84.18
42385;BME280;28042;43.986;22.860;2023-09-19T08:00:16;101410.06;;;19.71;84.96
42385;BME280;28042;43.986;22.860;2023-09-19T08:02:41;101407.66;;;19.74;85.87
42385;BME280;28042;43.986;22.860;2023-09-19T08:05:07;101404.63;;;19.99;84.26
42385;BME280;28042;43.986;22.860;2023-09-19T08:07:37;101410.84;;;20.07;83.84
42385;BME280;28042;43.986;22.860;2023-09-19T08:10:03;101414.50;;;19.95;84.02
42385;BME280;28042;43.986;22.860;2023-09-19T08:12:28;101412.69;;;20.01;82.72
42385;BME280;28042;43.986;22.860;2023-09-19T08:14:55;101401.25;;;19.97;83.42
42385;BME280;28042;43.986;22.860;2023-09-19T08:17:20;101398.28;;;19.64;84.16
42385;BME280;28042;43.986;22.860;2023-09-19T08:19:47;101403.44;;;19.60;84.80
42385;BME280;28042;43.986;22.860;2023-09-19T08:22:14;101401.00;;;19.87;84.78
42385;BME280;28042;43.986;22.860;2023-09-19T08:24:42;101409.47;;;19.69;85.23
42385;BME280;28042;43.986;22.860;2023-09-19T08:27:08;101401.75;;;19.71;85.83
42385;BME280;28042;43.986;22.860;2023-09-19T08:29:35;101396.69;;;19.91;85.10
42385;BME280;28042;43.986;22.860;2023-09-19T08:32:00;101397.59;;;20.20;84.43
42385;BME280;28042;43.986;22.860;2023-09-19T08:34:26;101402.03;;;20.21;84.28
42385;BME280;28042;43.986;22.860;2023-09-19T08:36:51;101390.09;;;20.44;82.47
42385;BME280;28042;43.986;22.860;2023-09-19T08:39:21;101385.84;;;20.53;83.58
42385;BME280;28042;43.986;22.860;2023-09-19T08:41:47;101394.94;;;20.66;83.70
42385;BME280;28042;43.986;22.860;2023-09-19T08:44:12;101391.66;;;20.97;83.99
42385;BME280;28042;43.986;22.860;2023-09-19T08:46:37;101394.09;;;21.10;79.40
42385;BME280;28042;43.986;22.860;2023-09-19T08:49:19;101396.09;;;20.98;79.54
42385;BME280;28042;43.986;22.860;2023-09-19T08:51:53;101397.78;;;20.99;78.86
42385;BME280;28042;43.986;22.860;2023-09-19T08:54:25;101406.34;;;20.98;78.26
42385;BME280;28042;43.986;22.860;2023-09-19T08:56:54;101409.91;;;21.10;77.81
42385;BME280;28042;43.986;22.860;2023-09-19T08:59:22;101414.13;;;21.12;79.44
42385;BME280;28042;43.986;22.860;2023-09-19T09:01:52;101416.47;;;21.04;80.04
42385;BME280;28042;43.986;22.860;2023-09-19T09:04:18;101415.41;;;20.93;78.01
42385;BME280;28042;43.986;22.860;2023-09-19T09:06:45;101403.50;;;21.09;78.08
42385;BME280;28042;43.986;22.860;2023-09-19T09:09:13;101403.91;;;21.30;78.05
42385;BME280;28042;43.986;22.860;2023-09-19T09:11:40;101407.53;;;21.18;77.43
42385;BME280;28042;43.986;22.860;2023-09-19T09:14:06;101406.06;;;21.28;77.21
42385;BME280;28042;43.986;22.860;2023-09-19T09:16:33;101405.88;;;21.85;75.66
42385;BME280;28042;43.986;22.860;2023-09-19T09:18:59;101398.13;;;22.25;74.25
42385;BME280;28042;43.986;22.860;2023-09-19T09:21:25;101383.56;;;22.67;72.11
42385;BME280;28042;43.986;22.860;2023-09-19T09:23:50;101388.47;;;23.09;68.56
42385;BME280;28042;43.986;22.860;2023-09-19T09:29:12;101383.47;;;22.84;66.31
42385;BME280;28042;43.986;22.860;2023-09-19T09:31:38;101389.81;;;23.01;68.02
42385;BME280;28042;43.986;22.860;2023-09-19T09:34:04;101388.44;;;23.36;67.76
42385;BME280;28042;43.986;22.860;2023-09-19T09:36:36;101386.16;;;23.60;64.98
42385;BME280;28042;43.986;22.860;2023-09-19T09:39:01;101378.59;;;23.23;65.35
42385;BME280;28042;43.986;22.860;2023-09-19T09:41:41;101377.75;;;22.91;65.55
42385;BME280;28042;43.986;22.860;2023-09-19T09:44:16;101385.09;;;22.53;66.81
42385;BME280;28042;43.986;22.860;2023-09-19T09:46:48;101385.22;;;22.63;66.38
42385;BME280;28042;43.986;22.860;2023-09-19T09:49:23;101382.06;;;22.81;65.74
42385;BME280;28042;43.986;22.860;2023-09-19T09:52:07;101372.41;;;22.62;67.25
42385;BME280;28042;43.986;22.860;2023-09-19T09:54:35;101369.25;;;22.80;68.19
42385;BME280;28042;43.986;22.860;2023-09-19T09:59:58;101353.88;;;23.00;64.98
42385;BME280;28042;43.986;22.860;2023-09-19T10:02:41;101363.53;;;22.87;65.34
42385;BME280;28042;43.986;22.860;2023-09-19T10:05:13;101358.81;;;22.88;64.64
42385;BME280;28042;43.986;22.860;2023-09-19T10:07:49;101350.75;;;23.23;64.89
42385;BME280;28042;43.986;22.860;2023-09-19T10:13:03;101332.88;;;23.14;64.93
42385;BME280;28042;43.986;22.860;2023-09-19T10:15:29;101337.25;;;23.05;65.43
42385;BME280;28042;43.986;22.860;2023-09-19T10:17:56;101342.63;;;22.84;66.24
42385;BME280;28042;43.986;22.860;2023-09-19T10:20:25;101340.88;;;23.05;65.05
42385;BME280;28042;43.986;22.860;2023-09-19T10:23:06;101344.69;;;22.99;65.62
42385;BME280;28042;43.986;22.860;2023-09-19T10:25:38;101346.22;;;23.12;65.37
42385;BME280;28042;43.986;22.860;2023-09-19T10:28:05;101342.41;;;23.23;64.15
42385;BME280;28042;43.986;22.860;2023-09-19T10:30:36;101344.69;;;23.31;64.27
42385;BME280;28042;43.986;22.860;2023-09-19T10:33:04;101332.31;;;23.54;63.69
42385;BME280;28042;43.986;22.860;2023-09-19T10:35:30;101333.72;;;23.57;62.93
42385;BME280;28042;43.986;22.860;2023-09-19T10:37:57;101332.50;;;23.42;64.44
42385;BME280;28042;43.986;22.860;2023-09-19T10:40:24;101325.28;;;23.41;62.51
42385;BME280;28042;43.986;22.860;2023-09-19T10:42:58;101325.63;;;23.13;63.24
42385;BME280;28042;43.986;22.860;2023-09-19T10:45:25;101322.16;;;22.96;64.41
42385;BME280;28042;43.986;22.860;2023-09-19T10:47:51;101323.19;;;22.90;64.28
42385;BME280;28042;43.986;22.860;2023-09-19T10:50:20;101327.72;;;22.96;66.26
42385;BME280;28042;43.986;22.860;2023-09-19T10:52:47;101322.97;;;22.96;64.68
42385;BME280;28042;43.986;22.860;2023-09-19T10:55:16;101325.41;;;22.88;65.17
42385;BME280;28042;43.986;22.860;2023-09-19T10:57:46;101324.13;;;23.00;64.22
42385;BME280;28042;43.986;22.860;2023-09-19T11:00:12;101321.34;;;23.00;64.34
42385;BME280;28042;43.986;22.860;2023-09-19T11:05:40;101306.50;;;22.90;67.19
42385;BME280;28042;43.986;22.860;2023-09-19T11:08:09;101303.84;;;23.05;69.59
42385;BME280;28042;43.986;22.860;2023-09-19T11:10:49;101307.53;;;22.83;66.49
42385;BME280;28042;43.986;22.860;2023-09-19T11:13:25;101300.38;;;23.25;69.21
42385;BME280;28042;43.986;22.860;2023-09-19T11:26:47;101294.88;;;23.77;65.38
42385;BME280;28042;43.986;22.860;2023-09-19T11:29:25;101274.69;;;23.55;63.04
42385;BME280;28042;43.986;22.860;2023-09-19T11:31:52;101276.94;;;23.63;63.11
42385;BME280;28042;43.986;22.860;2023-09-19T11:39:29;101257.31;;;23.95;61.06
42385;BME280;28042;43.986;22.860;2023-09-19T11:41:55;101263.81;;;24.16;61.11
42385;BME280;28042;43.986;22.860;2023-09-19T11:46:55;101261.59;;;24.28;60.22
42385;BME280;28042;43.986;22.860;2023-09-19T11:49:30;101258.75;;;24.13;58.93
42385;BME280;28042;43.986;22.860;2023-09-19T11:51:57;101256.56;;;24.25;58.78
42385;BME280;28042;43.986;22.860;2023-09-19T11:54:23;101244.06;;;24.48;58.86
42385;BME280;28042;43.986;22.860;2023-09-19T11:56:53;101240.44;;;24.58;59.38
42385;BME280;28042;43.986;22.860;2023-09-19T12:02:16;101232.63;;;24.90;57.46
42385;BME280;28042;43.986;22.860;2023-09-19T12:04:43;101232.66;;;24.65;57.34
42385;BME280;28042;43.986;22.860;2023-09-19T12:07:11;101229.88;;;24.70;57.55
42385;BME280;28042;43.986;22.860;2023-09-19T12:09:40;101225.31;;;24.23;58.12
42385;BME280;28042;43.986;22.860;2023-09-19T12:12:09;101215.34;;;24.58;58.93
42385;BME280;28042;43.986;22.860;2023-09-19T12:14:34;101213.38;;;24.84;58.70
42385;BME280;28042;43.986;22.860;2023-09-19T12:17:00;101215.63;;;24.81;55.42
42385;BME280;28042;43.986;22.860;2023-09-19T12:19:27;101214.25;;;24.79;55.83
42385;BME280;28042;43.986;22.860;2023-09-19T12:22:00;101214.78;;;24.96;56.80
42385;BME280;28042;43.986;22.860;2023-09-19T12:24:29;101210.34;;;24.85;55.79
42385;BME280;28042;43.986;22.860;2023-09-19T12:27:04;101217.00;;;24.84;54.47
42385;BME280;28042;43.986;22.860;2023-09-19T12:29:30;101218.16;;;25.03;54.69
42385;BME280;28042;43.986;22.860;2023-09-19T12:31:57;101214.69;;;25.42;53.91
42385;BME280;28042;43.986;22.860;2023-09-19T12:34:26;101211.06;;;25.42;52.74
42385;BME280;28042;43.986;22.860;2023-09-19T12:37:07;101212.34;;;25.75;52.28
42385;BME280;28042;43.986;22.860;2023-09-19T12:39:45;101208.84;;;26.03;52.74
42385;BME280;28042;43.986;22.860;2023-09-19T12:42:14;101209.78;;;25.83;51.79
42385;BME280;28042;43.986;22.860;2023-09-19T12:44:46;101197.78;;;25.78;51.53
42385;BME280;28042;43.986;22.860;2023-09-19T12:47:16;101202.03;;;25.60;55.29
42385;BME280;28042;43.986;22.860;2023-09-19T12:52:37;101202.38;;;25.43;52.89
42385;BME280;28042;43.986;22.860;2023-09-19T12:55:03;101200.72;;;25.47;53.94
42385;BME280;28042;43.986;22.860;2023-09-19T12:57:30;101192.75;;;25.80;52.03
42385;BME280;28042;43.986;22.860;2023-09-19T12:59:57;101188.78;;;25.91;52.76
42385;BME280;28042;43.986;22.860;2023-09-19T13:02:22;101185.47;;;25.89;52.95
42385;BME280;28042;43.986;22.860;2023-09-19T13:04:55;101190.00;;;25.75;53.25
42385;BME280;28042;43.986;22.860;2023-09-19T13:07:39;101184.28;;;25.95;53.11
42385;BME280;28042;43.986;22.860;2023-09-19T13:10:08;101186.44;;;26.08;52.60
42385;BME280;28042;43.986;22.860;2023-09-19T13:12:34;101192.13;;;25.93;51.67
42385;BME280;28042;43.986;22.860;2023-09-19T13:15:11;101188.81;;;25.86;52.19
42385;BME280;28042;43.986;22.860;2023-09-19T13:17:48;101186.84;;;25.86;53.75
42385;BME280;28042;43.986;22.860;2023-09-19T13:22:52;101187.06;;;25.95;51.38
42385;BME280;28042;43.986;22.860;2023-09-19T13:25:20;101191.28;;;25.92;51.35
42385;BME280;28042;43.986;22.860;2023-09-19T13:27:46;101187.38;;;25.93;51.36
42385;BME280;28042;43.986;22.860;2023-09-19T13:30:13;101185.75;;;25.82;51.24
42385;BME280;28042;43.986;22.860;2023-09-19T13:32:38;101187.00;;;25.56;52.57